LEALLEAM

Guest
Details From LEAL - Alicante
To LEAM - Almeria
Flight Number -
Tags generated
Created
Modified
Stats Distance 122 nm / 226 km
Max Altitude 3,400 ft / 1,036 m
Waypoints 3
Social Downloads 4
Likes 0
Share VATSIM

Download

Looking for another format? Having issues loading an existing format? Contact us
Advertisement - Login to hide

Notes

Basic altitude profile: - Ascent Rate: 2500ft/min - Ascent Speed: 250kts - Cruise Altitude: 35000ft - Cruise Speed: 420kts - Descent Rate: 1500ft/min - Descent Speed: 250kts Options: - Use NATs: yes - Use PACOTS: yes - Use low airways: yes - Use high airways: yes

Route

LEAL SORBA LEAM

ID Type Via Altitude Latitude Longitude Leg Dist Tot Dist Heading (true) Name
O LEAL APT - 0 ft / 0 m 38.28217˚ -0.55816˚ - 0 nm - Alicante
SORBA FIX - 3,400 ft / 1,036 m 37.03570˚ -2.12885˚ 105 nm 105 nm 225° / 224° -
O LEAM APT - 0 ft / 0 m 36.84393˚ -2.37010˚ 16 nm 122 nm 225° / 225° Almeria

Altitude Profile

Advertisement - Login to hide

LEAL

Details ICAO LEAL (ALC)
Name Alicante
Region Spain
Timezone Europe/Madrid (UTC+1.0)
Stats Elevation 141 ft / 43 m (AMSL)
Location 38.282169° -0.558157°
Runways 1
Magnetic Variation 0.184° E

METAR

LEAL 161700Z 14003KT CAVOK 12/02 Q1020 NOSIG

Decode

TAF

TAF TAF LEAL 161100Z 1612/1712 32007KT 9999 FEW030 TX16/1613Z TN05/1706Z TEMPO 1612/1617 11007KT

Decode

Departure Runways

ID Width Length Bearing (true) Bearing (mag) Surface Threshold Offset Overrun Length
10 148 ft / 45 m 9,799 ft / 2,987 m 100.07° 99.89° Asphalt 0 ft / 0 m 164 ft / 50 m
28 148 ft / 45 m 9,799 ft / 2,987 m 280.09° 279.91° Asphalt 0 ft / 0 m 197 ft / 60 m

LEAM

Details ICAO LEAM (LEI)
Name Almeria
Region Spain
Timezone Unknown (UTC+0.0)
Stats Elevation 70 ft / 21 m (AMSL)
Location 36.843935° -2.370097°
Runways 1
Magnetic Variation 0.287° W

METAR

LEAM 161700Z 09004KT 9999 FEW060 12/03 Q1020

Decode

TAF

TAF LEAM 161400Z 1615/1715 10008KT 9999 FEW045 TX16/1714Z TN07/1706Z

Decode

Destination Runways

ID Width Length Bearing (true) Bearing (mag) Surface Threshold Offset Overrun Length
08 148 ft / 45 m 10,484 ft / 3,196 m 72.94° 73.23° Asphalt 492 ft / 150 m 191 ft / 58 m
26 148 ft / 45 m 10,484 ft / 3,196 m 252.96° 253.25° Asphalt 0 ft / 0 m 150 ft / 46 m

Approach Navaids

Runway Type Ident Frequency Range Bearing (true) Bearing (mag) Slope Elevation
26 Localiser IAM 109.90 MHz 18 nm / 33 km 252.94° 253.22° - 70 ft / 21 m (AMSL)
26 Glidescope IAM 109.90 MHz 10 nm / 19 km 252.95° 253.23° 3.00° 70 ft / 21 m (AMSL)
26 DME IAM 109.90 MHz 18 nm / 33 km - - - 95 ft / 29 m (AMSL)

Popular Alternatives